Van Buren, New York
Current Conditions -  °F | °C
As of 2:54 PM on Wednesday 17 Dec 2014 (Local Time) from KFZY Reporting Station
Light Rain Light Rain  
Wind Chill: 28°   Ceiling: 1200
Heat Index: 36°   Visibility: 9mi
Dew Point: 32°   Wind: 10mph
Humidity: 86%   Direction: 270°W
Pressure: 29.85"   Gusts: NA
Location:  43.1825°N, 76.3664°W
Report Text: KFZY 171954Z AUTO 27009KT 9SM -RA BKN012 OVC028 02/00 A2985 RMK AO2 SLP112 P0001 T00220000
Loading
Personal Weather Stations






























Interactive Weather Map New forecast layout! Learn more

10-Day Weather Forecast

Advertisements
Track Severe Weather on mobile